sensor_id;sensor_type;location;lat;lon;timestamp;temperature;humidity
50570;DHT22;36525;49.398;7.614;2023-07-02T00:00:09;16.00;99.90
50570;DHT22;36525;49.398;7.614;2023-07-02T00:02:37;16.10;99.90
50570;DHT22;36525;49.398;7.614;2023-07-02T00:05:06;16.10;99.90
50570;DHT22;36525;49.398;7.614;2023-07-02T00:07:34;16.00;99.90
50570;DHT22;36525;49.398;7.614;2023-07-02T00:10:04;16.00;99.90
50570;DHT22;36525;49.398;7.614;2023-07-02T00:12:31;16.00;99.90
50570;DHT22;36525;49.398;7.614;2023-07-02T00:14:59;16.00;99.90
50570;DHT22;36525;49.398;7.614;2023-07-02T00:17:27;15.90;99.90
50570;DHT22;36525;49.398;7.614;2023-07-02T00:19:54;15.90;99.90
50570;DHT22;36525;49.398;7.614;2023-07-02T00:22:24;15.90;99.90
50570;DHT22;36525;49.398;7.614;2023-07-02T00:24:51;15.90;99.90
50570;DHT22;36525;49.398;7.614;2023-07-02T00:27:22;15.80;99.90
50570;DHT22;36525;49.398;7.614;2023-07-02T00:29:49;15.80;99.90
50570;DHT22;36525;49.398;7.614;2023-07-02T00:32:16;15.80;99.90
50570;DHT22;36525;49.398;7.614;2023-07-02T00:34:43;15.80;99.90
50570;DHT22;36525;49.398;7.614;2023-07-02T00:37:10;15.80;99.90
50570;DHT22;36525;49.398;7.614;2023-07-02T00:39:38;15.80;99.90
50570;DHT22;36525;49.398;7.614;2023-07-02T00:42:05;15.80;99.90
50570;DHT22;36525;49.398;7.614;2023-07-02T00:44:32;15.80;99.90
50570;DHT22;36525;49.398;7.614;2023-07-02T00:46:59;15.70;99.90
50570;DHT22;36525;49.398;7.614;2023-07-02T00:49:26;15.60;99.90
50570;DHT22;36525;49.398;7.614;2023-07-02T00:51:54;15.70;99.90
50570;DHT22;36525;49.398;7.614;2023-07-02T00:54:21;15.70;99.90
50570;DHT22;36525;49.398;7.614;2023-07-02T00:56:48;15.60;99.90
50570;DHT22;36525;49.398;7.614;2023-07-02T00:59:15;15.60;99.90
50570;DHT22;36525;49.398;7.614;2023-07-02T01:01:44;15.60;99.90
50570;DHT22;36525;49.398;7.614;2023-07-02T01:04:17;15.60;99.90
50570;DHT22;36525;49.398;7.614;2023-07-02T01:06:45;15.50;99.90
50570;DHT22;36525;49.398;7.614;2023-07-02T01:09:12;15.50;99.90
50570;DHT22;36525;49.398;7.614;2023-07-02T01:12:06;15.50;99.90
50570;DHT22;36525;49.398;7.614;2023-07-02T01:14:38;15.50;99.90
50570;DHT22;36525;49.398;7.614;2023-07-02T01:17:09;15.40;99.90
50570;DHT22;36525;49.398;7.614;2023-07-02T01:22:25;15.50;99.90
50570;DHT22;36525;49.398;7.614;2023-07-02T01:24:54;15.50;99.90
50570;DHT22;36525;49.398;7.614;2023-07-02T01:27:22;15.50;99.90
50570;DHT22;36525;49.398;7.614;2023-07-02T01:29:53;15.40;99.90
50570;DHT22;36525;49.398;7.614;2023-07-02T01:32:20;15.40;99.90
50570;DHT22;36525;49.398;7.614;2023-07-02T01:34:48;15.30;99.90
50570;DHT22;36525;49.398;7.614;2023-07-02T01:37:16;15.30;99.90
50570;DHT22;36525;49.398;7.614;2023-07-02T01:39:44;15.40;99.90
50570;DHT22;36525;49.398;7.614;2023-07-02T01:42:15;15.30;99.90
50570;DHT22;36525;49.398;7.614;2023-07-02T01:44:45;15.30;99.90
50570;DHT22;36525;49.398;7.614;2023-07-02T01:47:14;15.20;99.90
50570;DHT22;36525;49.398;7.614;2023-07-02T01:49:42;15.20;99.90
50570;DHT22;36525;49.398;7.614;2023-07-02T01:52:10;15.20;99.90
50570;DHT22;36525;49.398;7.614;2023-07-02T01:54:37;15.20;99.90
50570;DHT22;36525;49.398;7.614;2023-07-02T01:57:05;15.20;99.90
50570;DHT22;36525;49.398;7.614;2023-07-02T01:59:32;15.20;99.90
50570;DHT22;36525;49.398;7.614;2023-07-02T02:02:01;15.20;99.90
50570;DHT22;36525;49.398;7.614;2023-07-02T02:04:29;15.20;99.90
50570;DHT22;36525;49.398;7.614;2023-07-02T02:06:56;15.10;99.90
50570;DHT22;36525;49.398;7.614;2023-07-02T02:09:23;15.20;99.90
50570;DHT22;36525;49.398;7.614;2023-07-02T02:11:51;15.20;99.90
50570;DHT22;36525;49.398;7.614;2023-07-02T02:14:19;15.20;99.90
50570;DHT22;36525;49.398;7.614;2023-07-02T02:16:46;15.20;99.90
50570;DHT22;36525;49.398;7.614;2023-07-02T02:19:14;15.10;99.90
50570;DHT22;36525;49.398;7.614;2023-07-02T02:21:42;15.00;99.90
50570;DHT22;36525;49.398;7.614;2023-07-02T02:24:10;14.90;99.90
50570;DHT22;36525;49.398;7.614;2023-07-02T02:26:37;14.90;99.90
50570;DHT22;36525;49.398;7.614;2023-07-02T02:29:04;14.90;99.90
50570;DHT22;36525;49.398;7.614;2023-07-02T02:31:31;14.80;99.90
50570;DHT22;36525;49.398;7.614;2023-07-02T02:33:58;14.70;99.90
50570;DHT22;36525;49.398;7.614;2023-07-02T02:36:25;14.70;99.90
50570;DHT22;36525;49.398;7.614;2023-07-02T02:38:52;14.70;99.90
50570;DHT22;36525;49.398;7.614;2023-07-02T02:41:19;14.70;99.90
50570;DHT22;36525;49.398;7.614;2023-07-02T02:43:46;14.60;99.90
50570;DHT22;36525;49.398;7.614;2023-07-02T02:46:20;14.60;99.90
50570;DHT22;36525;49.398;7.614;2023-07-02T02:48:49;14.60;99.90
50570;DHT22;36525;49.398;7.614;2023-07-02T02:51:16;14.60;99.90
50570;DHT22;36525;49.398;7.614;2023-07-02T02:53:44;14.60;99.90
50570;DHT22;36525;49.398;7.614;2023-07-02T02:56:10;14.50;99.90
50570;DHT22;36525;49.398;7.614;2023-07-02T02:58:37;14.50;99.90
50570;DHT22;36525;49.398;7.614;2023-07-02T03:01:05;14.40;99.90
50570;DHT22;36525;49.398;7.614;2023-07-02T03:03:41;14.40;99.90
50570;DHT22;36525;49.398;7.614;2023-07-02T03:06:13;14.30;99.90
50570;DHT22;36525;49.398;7.614;2023-07-02T03:08:41;14.30;99.90
50570;DHT22;36525;49.398;7.614;2023-07-02T03:11:09;14.30;99.90
50570;DHT22;36525;49.398;7.614;2023-07-02T03:13:36;14.30;99.90
50570;DHT22;36525;49.398;7.614;2023-07-02T03:16:03;14.30;99.90
50570;DHT22;36525;49.398;7.614;2023-07-02T03:18:30;14.30;99.90
50570;DHT22;36525;49.398;7.614;2023-07-02T03:20:58;14.30;99.90
50570;DHT22;36525;49.398;7.614;2023-07-02T03:23:25;14.20;99.90
50570;DHT22;36525;49.398;7.614;2023-07-02T03:25:52;14.20;99.90
50570;DHT22;36525;49.398;7.614;2023-07-02T03:28:19;14.20;99.90
50570;DHT22;36525;49.398;7.614;2023-07-02T03:30:47;14.20;99.90
50570;DHT22;36525;49.398;7.614;2023-07-02T03:33:14;14.20;99.90
50570;DHT22;36525;49.398;7.614;2023-07-02T03:35:42;14.20;99.90
50570;DHT22;36525;49.398;7.614;2023-07-02T03:38:09;14.10;99.90
50570;DHT22;36525;49.398;7.614;2023-07-02T03:40:36;14.20;99.90
50570;DHT22;36525;49.398;7.614;2023-07-02T03:43:04;14.20;99.90
50570;DHT22;36525;49.398;7.614;2023-07-02T03:45:32;14.20;99.90
50570;DHT22;36525;49.398;7.614;2023-07-02T03:47:59;14.20;99.90
50570;DHT22;36525;49.398;7.614;2023-07-02T03:50:44;14.20;99.90
50570;DHT22;36525;49.398;7.614;2023-07-02T03:53:11;14.20;99.90
50570;DHT22;36525;49.398;7.614;2023-07-02T03:55:39;14.10;99.90
50570;DHT22;36525;49.398;7.614;2023-07-02T03:58:07;14.10;99.90
50570;DHT22;36525;49.398;7.614;2023-07-02T04:00:34;14.10;99.90
50570;DHT22;36525;49.398;7.614;2023-07-02T04:03:01;14.10;99.90
50570;DHT22;36525;49.398;7.614;2023-07-02T04:05:29;14.10;99.90
50570;DHT22;36525;49.398;7.614;2023-07-02T04:07:56;14.10;99.90
50570;DHT22;36525;49.398;7.614;2023-07-02T04:10:23;14.10;99.90
50570;DHT22;36525;49.398;7.614;2023-07-02T04:12:50;14.20;99.90
50570;DHT22;36525;49.398;7.614;2023-07-02T04:15:17;14.20;99.90
50570;DHT22;36525;49.398;7.614;2023-07-02T04:17:44;14.30;99.90
50570;DHT22;36525;49.398;7.614;2023-07-02T04:20:11;14.30;99.90
50570;DHT22;36525;49.398;7.614;2023-07-02T04:22:38;14.30;99.90
50570;DHT22;36525;49.398;7.614;2023-07-02T04:25:06;14.20;99.90
50570;DHT22;36525;49.398;7.614;2023-07-02T04:27:48;14.20;99.90
50570;DHT22;36525;49.398;7.614;2023-07-02T04:30:17;14.20;99.90
50570;DHT22;36525;49.398;7.614;2023-07-02T04:32:45;14.20;99.90
50570;DHT22;36525;49.398;7.614;2023-07-02T04:35:12;14.20;99.90
50570;DHT22;36525;49.398;7.614;2023-07-02T04:37:39;14.20;99.90
50570;DHT22;36525;49.398;7.614;2023-07-02T04:40:07;14.30;99.90
50570;DHT22;36525;49.398;7.614;2023-07-02T04:42:42;14.20;99.90
50570;DHT22;36525;49.398;7.614;2023-07-02T04:45:15;14.20;99.90
50570;DHT22;36525;49.398;7.614;2023-07-02T04:47:44;14.20;99.90
50570;DHT22;36525;49.398;7.614;2023-07-02T04:50:12;14.40;99.90
50570;DHT22;36525;49.398;7.614;2023-07-02T04:52:39;14.40;99.90
50570;DHT22;36525;49.398;7.614;2023-07-02T04:55:06;14.30;99.90
50570;DHT22;36525;49.398;7.614;2023-07-02T04:57:33;14.40;99.90
50570;DHT22;36525;49.398;7.614;2023-07-02T05:00:01;14.30;99.90
50570;DHT22;36525;49.398;7.614;2023-07-02T05:02:30;14.30;99.90
50570;DHT22;36525;49.398;7.614;2023-07-02T05:04:57;14.30;99.90
50570;DHT22;36525;49.398;7.614;2023-07-02T05:07:25;14.40;99.90
50570;DHT22;36525;49.398;7.614;2023-07-02T05:09:52;14.50;99.90
50570;DHT22;36525;49.398;7.614;2023-07-02T05:12:20;14.50;99.90
50570;DHT22;36525;49.398;7.614;2023-07-02T05:14:47;14.50;99.90
50570;DHT22;36525;49.398;7.614;2023-07-02T05:17:14;14.60;99.90
50570;DHT22;36525;49.398;7.614;2023-07-02T05:19:41;14.70;99.90
50570;DHT22;36525;49.398;7.614;2023-07-02T05:22:09;14.70;99.90
50570;DHT22;36525;49.398;7.614;2023-07-02T05:24:37;14.80;99.90
50570;DHT22;36525;49.398;7.614;2023-07-02T05:27:04;15.00;99.90
50570;DHT22;36525;49.398;7.614;2023-07-02T05:29:32;14.90;99.90
50570;DHT22;36525;49.398;7.614;2023-07-02T05:31:59;15.00;99.90
50570;DHT22;36525;49.398;7.614;2023-07-02T05:34:26;15.10;99.90
50570;DHT22;36525;49.398;7.614;2023-07-02T05:36:53;15.10;99.90
50570;DHT22;36525;49.398;7.614;2023-07-02T05:39:21;15.00;99.90
50570;DHT22;36525;49.398;7.614;2023-07-02T05:41:49;15.10;99.90
50570;DHT22;36525;49.398;7.614;2023-07-02T05:44:17;15.20;99.90
50570;DHT22;36525;49.398;7.614;2023-07-02T05:46:44;15.30;99.90
50570;DHT22;36525;49.398;7.614;2023-07-02T05:49:11;15.30;99.90
50570;DHT22;36525;49.398;7.614;2023-07-02T05:51:38;15.20;99.90
50570;DHT22;36525;49.398;7.614;2023-07-02T05:54:06;15.20;99.90
50570;DHT22;36525;49.398;7.614;2023-07-02T05:56:34;15.20;99.90
50570;DHT22;36525;49.398;7.614;2023-07-02T05:59:01;15.30;99.90
50570;DHT22;36525;49.398;7.614;2023-07-02T06:01:28;15.60;99.90
50570;DHT22;36525;49.398;7.614;2023-07-02T06:03:55;15.60;99.90
50570;DHT22;36525;49.398;7.614;2023-07-02T06:06:23;15.70;99.90
50570;DHT22;36525;49.398;7.614;2023-07-02T06:08:51;15.80;99.90
50570;DHT22;36525;49.398;7.614;2023-07-02T06:11:18;15.80;99.90
50570;DHT22;36525;49.398;7.614;2023-07-02T06:13:45;15.90;99.90
50570;DHT22;36525;49.398;7.614;2023-07-02T06:16:12;16.00;99.90
50570;DHT22;36525;49.398;7.614;2023-07-02T06:18:39;15.90;99.90
50570;DHT22;36525;49.398;7.614;2023-07-02T06:21:06;16.00;99.90
50570;DHT22;36525;49.398;7.614;2023-07-02T06:23:44;15.90;99.90
50570;DHT22;36525;49.398;7.614;2023-07-02T06:26:11;16.00;99.90
50570;DHT22;36525;49.398;7.614;2023-07-02T06:28:39;16.10;99.90
50570;DHT22;36525;49.398;7.614;2023-07-02T06:31:06;16.20;99.90
50570;DHT22;36525;49.398;7.614;2023-07-02T06:33:33;16.20;99.90
50570;DHT22;36525;49.398;7.614;2023-07-02T06:36:01;16.20;99.90
50570;DHT22;36525;49.398;7.614;2023-07-02T06:38:28;16.30;99.90
50570;DHT22;36525;49.398;7.614;2023-07-02T06:40:54;16.40;99.90
50570;DHT22;36525;49.398;7.614;2023-07-02T06:43:22;16.30;99.90
50570;DHT22;36525;49.398;7.614;2023-07-02T06:45:49;16.20;99.90
50570;DHT22;36525;49.398;7.614;2023-07-02T06:48:16;16.30;99.90
50570;DHT22;36525;49.398;7.614;2023-07-02T06:50:48;16.50;99.90
50570;DHT22;36525;49.398;7.614;2023-07-02T06:53:16;16.30;99.90
50570;DHT22;36525;49.398;7.614;2023-07-02T06:55:45;16.40;99.90
50570;DHT22;36525;49.398;7.614;2023-07-02T06:58:13;16.50;99.90
50570;DHT22;36525;49.398;7.614;2023-07-02T07:00:40;16.30;99.90
50570;DHT22;36525;49.398;7.614;2023-07-02T07:03:07;16.20;99.90
50570;DHT22;36525;49.398;7.614;2023-07-02T07:05:35;16.40;99.90
50570;DHT22;36525;49.398;7.614;2023-07-02T07:08:02;16.40;99.90
50570;DHT22;36525;49.398;7.614;2023-07-02T07:10:29;16.60;99.90
50570;DHT22;36525;49.398;7.614;2023-07-02T07:13:04;16.60;99.90
50570;DHT22;36525;49.398;7.614;2023-07-02T07:15:33;16.60;99.90
50570;DHT22;36525;49.398;7.614;2023-07-02T07:18:03;16.70;99.90
50570;DHT22;36525;49.398;7.614;2023-07-02T07:20:31;17.00;99.90
50570;DHT22;36525;49.398;7.614;2023-07-02T07:22:58;17.10;99.90
50570;DHT22;36525;49.398;7.614;2023-07-02T07:25:25;17.10;99.90
50570;DHT22;36525;49.398;7.614;2023-07-02T07:27:53;17.20;99.90
50570;DHT22;36525;49.398;7.614;2023-07-02T07:30:20;17.00;99.90
50570;DHT22;36525;49.398;7.614;2023-07-02T07:32:52;17.10;99.90
50570;DHT22;36525;49.398;7.614;2023-07-02T07:35:21;17.00;99.90
50570;DHT22;36525;49.398;7.614;2023-07-02T07:37:49;17.00;99.90
50570;DHT22;36525;49.398;7.614;2023-07-02T07:40:17;17.10;99.90
50570;DHT22;36525;49.398;7.614;2023-07-02T07:42:44;17.30;99.90
50570;DHT22;36525;49.398;7.614;2023-07-02T07:45:12;17.30;99.90
50570;DHT22;36525;49.398;7.614;2023-07-02T07:47:39;17.50;99.90
50570;DHT22;36525;49.398;7.614;2023-07-02T07:50:07;17.40;99.90
50570;DHT22;36525;49.398;7.614;2023-07-02T07:52:43;17.60;99.90
50570;DHT22;36525;49.398;7.614;2023-07-02T07:55:10;17.70;99.90
50570;DHT22;36525;49.398;7.614;2023-07-02T07:57:37;17.90;99.90
50570;DHT22;36525;49.398;7.614;2023-07-02T08:00:05;17.80;99.90
50570;DHT22;36525;49.398;7.614;2023-07-02T08:02:38;17.70;99.90
50570;DHT22;36525;49.398;7.614;2023-07-02T08:05:06;17.80;99.90
50570;DHT22;36525;49.398;7.614;2023-07-02T08:07:34;17.80;99.90
50570;DHT22;36525;49.398;7.614;2023-07-02T08:10:01;18.10;99.90
50570;DHT22;36525;49.398;7.614;2023-07-02T08:12:29;18.00;99.90
50570;DHT22;36525;49.398;7.614;2023-07-02T08:14:57;17.80;99.90
50570;DHT22;36525;49.398;7.614;2023-07-02T08:17:27;18.10;99.90
50570;DHT22;36525;49.398;7.614;2023-07-02T08:19:54;18.10;99.90
50570;DHT22;36525;49.398;7.614;2023-07-02T08:22:21;18.20;99.90
50570;DHT22;36525;49.398;7.614;2023-07-02T08:24:49;17.90;99.90
50570;DHT22;36525;49.398;7.614;2023-07-02T08:27:17;17.90;99.90
50570;DHT22;36525;49.398;7.614;2023-07-02T08:29:48;18.10;99.90
50570;DHT22;36525;49.398;7.614;2023-07-02T08:32:15;18.10;99.90
50570;DHT22;36525;49.398;7.614;2023-07-02T08:34:43;18.20;99.90
50570;DHT22;36525;49.398;7.614;2023-07-02T08:37:10;18.30;99.90
50570;DHT22;36525;49.398;7.614;2023-07-02T08:39:38;18.30;99.90
50570;DHT22;36525;49.398;7.614;2023-07-02T08:42:07;18.30;99.90
50570;DHT22;36525;49.398;7.614;2023-07-02T08:44:34;18.50;99.90
50570;DHT22;36525;49.398;7.614;2023-07-02T08:47:03;18.50;99.90
50570;DHT22;36525;49.398;7.614;2023-07-02T08:49:30;18.20;99.90
50570;DHT22;36525;49.398;7.614;2023-07-02T08:51:58;18.10;99.90
50570;DHT22;36525;49.398;7.614;2023-07-02T08:54:25;17.80;99.90
50570;DHT22;36525;49.398;7.614;2023-07-02T08:56:52;17.80;99.90
50570;DHT22;36525;49.398;7.614;2023-07-02T08:59:19;17.80;99.90
50570;DHT22;36525;49.398;7.614;2023-07-02T09:01:47;18.00;99.90
50570;DHT22;36525;49.398;7.614;2023-07-02T09:04:23;18.70;99.90
50570;DHT22;36525;49.398;7.614;2023-07-02T09:07:06;19.20;99.90
50570;DHT22;36525;49.398;7.614;2023-07-02T09:09:48;19.70;99.90
50570;DHT22;36525;49.398;7.614;2023-07-02T09:12:27;19.80;99.90
50570;DHT22;36525;49.398;7.614;2023-07-02T09:15:03;20.40;99.90
50570;DHT22;36525;49.398;7.614;2023-07-02T09:17:35;20.60;99.90
50570;DHT22;36525;49.398;7.614;2023-07-02T09:20:05;20.80;99.90
50570;DHT22;36525;49.398;7.614;2023-07-02T09:22:35;20.50;99.90
50570;DHT22;36525;49.398;7.614;2023-07-02T09:25:06;20.30;99.90
50570;DHT22;36525;49.398;7.614;2023-07-02T09:27:34;19.80;99.90
50570;DHT22;36525;49.398;7.614;2023-07-02T09:30:13;19.40;99.90
50570;DHT22;36525;49.398;7.614;2023-07-02T09:32:43;19.00;99.90
50570;DHT22;36525;49.398;7.614;2023-07-02T09:35:14;18.80;99.90
50570;DHT22;36525;49.398;7.614;2023-07-02T09:37:43;18.90;99.90
50570;DHT22;36525;49.398;7.614;2023-07-02T09:40:11;19.90;99.90
50570;DHT22;36525;49.398;7.614;2023-07-02T09:42:39;20.50;99.90
50570;DHT22;36525;49.398;7.614;2023-07-02T09:45:08;20.60;99.90
50570;DHT22;36525;49.398;7.614;2023-07-02T09:47:42;20.70;99.90
50570;DHT22;36525;49.398;7.614;2023-07-02T09:50:14;20.40;99.90
50570;DHT22;36525;49.398;7.614;2023-07-02T09:52:44;20.10;99.90
50570;DHT22;36525;49.398;7.614;2023-07-02T09:55:14;20.10;99.90
50570;DHT22;36525;49.398;7.614;2023-07-02T09:57:43;19.30;99.90
50570;DHT22;36525;49.398;7.614;2023-07-02T10:00:11;19.10;99.90
50570;DHT22;36525;49.398;7.614;2023-07-02T10:02:39;20.00;99.90
50570;DHT22;36525;49.398;7.614;2023-07-02T10:05:07;20.60;99.90
50570;DHT22;36525;49.398;7.614;2023-07-02T10:07:34;21.10;99.90
50570;DHT22;36525;49.398;7.614;2023-07-02T10:10:01;21.30;99.90
50570;DHT22;36525;49.398;7.614;2023-07-02T10:12:29;20.60;99.90
50570;DHT22;36525;49.398;7.614;2023-07-02T10:14:58;20.20;99.90
50570;DHT22;36525;49.398;7.614;2023-07-02T10:17:30;20.80;99.90
50570;DHT22;36525;49.398;7.614;2023-07-02T10:20:00;20.80;99.90
50570;DHT22;36525;49.398;7.614;2023-07-02T10:22:50;20.20;99.90
50570;DHT22;36525;49.398;7.614;2023-07-02T10:25:25;20.00;99.90
50570;DHT22;36525;49.398;7.614;2023-07-02T10:27:53;20.20;99.90
50570;DHT22;36525;49.398;7.614;2023-07-02T10:30:31;20.00;99.90
50570;DHT22;36525;49.398;7.614;2023-07-02T10:33:15;20.10;99.90
50570;DHT22;36525;49.398;7.614;2023-07-02T10:35:46;20.90;99.90
50570;DHT22;36525;49.398;7.614;2023-07-02T10:38:21;22.10;99.90
50570;DHT22;36525;49.398;7.614;2023-07-02T10:40:57;22.10;99.70
50570;DHT22;36525;49.398;7.614;2023-07-02T10:43:28;21.60;97.60
50570;DHT22;36525;49.398;7.614;2023-07-02T10:45:58;20.80;99.40
50570;DHT22;36525;49.398;7.614;2023-07-02T10:48:30;20.30;99.90
50570;DHT22;36525;49.398;7.614;2023-07-02T10:50:57;20.10;99.90
50570;DHT22;36525;49.398;7.614;2023-07-02T10:53:24;19.90;99.90
50570;DHT22;36525;49.398;7.614;2023-07-02T10:55:56;20.00;99.90
50570;DHT22;36525;49.398;7.614;2023-07-02T10:58:25;20.40;99.90
50570;DHT22;36525;49.398;7.614;2023-07-02T11:00:52;21.20;99.90
50570;DHT22;36525;49.398;7.614;2023-07-02T11:03:23;21.60;99.20
50570;DHT22;36525;49.398;7.614;2023-07-02T11:05:52;22.00;99.40
50570;DHT22;36525;49.398;7.614;2023-07-02T11:08:21;21.80;97.60
50570;DHT22;36525;49.398;7.614;2023-07-02T11:10:48;21.80;97.70
50570;DHT22;36525;49.398;7.614;2023-07-02T11:13:20;21.60;97.90
50570;DHT22;36525;49.398;7.614;2023-07-02T11:15:47;21.20;98.10
50570;DHT22;36525;49.398;7.614;2023-07-02T11:18:16;21.40;98.20
50570;DHT22;36525;49.398;7.614;2023-07-02T11:20:46;21.20;98.00
50570;DHT22;36525;49.398;7.614;2023-07-02T11:23:24;21.20;98.40
50570;DHT22;36525;49.398;7.614;2023-07-02T11:25:59;22.20;98.60
50570;DHT22;36525;49.398;7.614;2023-07-02T11:28:28;22.40;96.30
50570;DHT22;36525;49.398;7.614;2023-07-02T11:30:58;22.00;96.40
50570;DHT22;36525;49.398;7.614;2023-07-02T11:33:39;21.70;97.40
50570;DHT22;36525;49.398;7.614;2023-07-02T11:36:18;21.60;97.30
50570;DHT22;36525;49.398;7.614;2023-07-02T11:38:48;21.50;97.10
50570;DHT22;36525;49.398;7.614;2023-07-02T11:41:15;21.50;97.60
50570;DHT22;36525;49.398;7.614;2023-07-02T11:43:46;21.60;97.40
50570;DHT22;36525;49.398;7.614;2023-07-02T11:46:14;22.20;96.10
50570;DHT22;36525;49.398;7.614;2023-07-02T11:48:41;21.70;96.40
50570;DHT22;36525;49.398;7.614;2023-07-02T11:51:09;21.40;97.40
50570;DHT22;36525;49.398;7.614;2023-07-02T11:53:36;21.20;97.70
50570;DHT22;36525;49.398;7.614;2023-07-02T11:56:03;21.30;96.80
50570;DHT22;36525;49.398;7.614;2023-07-02T11:58:31;21.30;97.00
50570;DHT22;36525;49.398;7.614;2023-07-02T12:00:58;21.60;95.60
50570;DHT22;36525;49.398;7.614;2023-07-02T12:03:25;21.40;95.80
50570;DHT22;36525;49.398;7.614;2023-07-02T12:05:52;21.90;95.50
50570;DHT22;36525;49.398;7.614;2023-07-02T12:08:19;22.30;95.10
50570;DHT22;36525;49.398;7.614;2023-07-02T12:10:46;23.40;95.10
50570;DHT22;36525;49.398;7.614;2023-07-02T12:13:14;23.20;93.40
50570;DHT22;36525;49.398;7.614;2023-07-02T12:15:41;23.90;93.20
50570;DHT22;36525;49.398;7.614;2023-07-02T12:20:37;23.90;93.10
50570;DHT22;36525;49.398;7.614;2023-07-02T12:23:04;24.20;91.40
50570;DHT22;36525;49.398;7.614;2023-07-02T12:25:32;24.50;91.80
50570;DHT22;36525;49.398;7.614;2023-07-02T12:28:01;24.20;91.10
50570;DHT22;36525;49.398;7.614;2023-07-02T12:30:29;24.00;92.00
50570;DHT22;36525;49.398;7.614;2023-07-02T12:32:57;24.40;91.90
50570;DHT22;36525;49.398;7.614;2023-07-02T12:35:24;25.30;90.60
50570;DHT22;36525;49.398;7.614;2023-07-02T12:37:53;24.80;89.10
50570;DHT22;36525;49.398;7.614;2023-07-02T12:40:20;24.00;90.30
50570;DHT22;36525;49.398;7.614;2023-07-02T12:42:48;23.00;92.10
50570;DHT22;36525;49.398;7.614;2023-07-02T12:45:18;22.50;92.90
50570;DHT22;36525;49.398;7.614;2023-07-02T12:47:48;22.00;93.30
50570;DHT22;36525;49.398;7.614;2023-07-02T12:50:15;22.40;93.60
50570;DHT22;36525;49.398;7.614;2023-07-02T12:52:42;23.00;92.70
50570;DHT22;36525;49.398;7.614;2023-07-02T12:55:09;23.30;92.70
50570;DHT22;36525;49.398;7.614;2023-07-02T12:57:36;23.50;91.60
50570;DHT22;36525;49.398;7.614;2023-07-02T13:00:04;23.40;91.90
50570;DHT22;36525;49.398;7.614;2023-07-02T13:02:35;23.50;91.60
50570;DHT22;36525;49.398;7.614;2023-07-02T13:05:15;24.00;91.10
50570;DHT22;36525;49.398;7.614;2023-07-02T13:07:43;25.20;90.50
50570;DHT22;36525;49.398;7.614;2023-07-02T13:10:10;24.80;87.70
50570;DHT22;36525;49.398;7.614;2023-07-02T13:12:37;23.80;89.50
50570;DHT22;36525;49.398;7.614;2023-07-02T13:15:04;23.10;91.00
50570;DHT22;36525;49.398;7.614;2023-07-02T13:17:34;22.90;91.50
50570;DHT22;36525;49.398;7.614;2023-07-02T13:22:29;23.80;91.40
50570;DHT22;36525;49.398;7.614;2023-07-02T13:24:56;24.20;90.50
50570;DHT22;36525;49.398;7.614;2023-07-02T13:27:23;24.40;90.40
50570;DHT22;36525;49.398;7.614;2023-07-02T13:29:50;24.90;90.10
50570;DHT22;36525;49.398;7.614;2023-07-02T13:32:17;25.00;88.90
50570;DHT22;36525;49.398;7.614;2023-07-02T13:34:45;24.60;88.80
50570;DHT22;36525;49.398;7.614;2023-07-02T13:37:12;23.80;89.30
50570;DHT22;36525;49.398;7.614;2023-07-02T13:39:41;23.20;90.30
50570;DHT22;36525;49.398;7.614;2023-07-02T13:42:08;22.90;90.90
50570;DHT22;36525;49.398;7.614;2023-07-02T13:44:35;23.00;90.90
50570;DHT22;36525;49.398;7.614;2023-07-02T13:47:02;23.70;91.20
50570;DHT22;36525;49.398;7.614;2023-07-02T13:49:30;24.00;90.90
50570;DHT22;36525;49.398;7.614;2023-07-02T13:51:57;23.50;90.00
50570;DHT22;36525;49.398;7.614;2023-07-02T13:54:24;23.20;90.50
50570;DHT22;36525;49.398;7.614;2023-07-02T13:56:52;24.30;91.50
50570;DHT22;36525;49.398;7.614;2023-07-02T13:59:20;24.80;90.10
50570;DHT22;36525;49.398;7.614;2023-07-02T14:01:47;24.60;89.20
50570;DHT22;36525;49.398;7.614;2023-07-02T14:04:16;23.80;89.90
50570;DHT22;36525;49.398;7.614;2023-07-02T14:06:44;23.60;90.10
50570;DHT22;36525;49.398;7.614;2023-07-02T14:09:11;23.50;90.20
50570;DHT22;36525;49.398;7.614;2023-07-02T14:11:40;23.30;90.80
50570;DHT22;36525;49.398;7.614;2023-07-02T14:14:08;23.80;91.00
50570;DHT22;36525;49.398;7.614;2023-07-02T14:16:35;23.80;90.40
50570;DHT22;36525;49.398;7.614;2023-07-02T14:19:03;24.40;90.40
50570;DHT22;36525;49.398;7.614;2023-07-02T14:21:30;24.00;90.40
50570;DHT22;36525;49.398;7.614;2023-07-02T14:23:58;23.80;90.30
50570;DHT22;36525;49.398;7.614;2023-07-02T14:26:25;23.40;90.60
50570;DHT22;36525;49.398;7.614;2023-07-02T14:28:53;23.90;91.10
50570;DHT22;36525;49.398;7.614;2023-07-02T14:31:21;24.60;90.70
50570;DHT22;36525;49.398;7.614;2023-07-02T14:33:48;26.00;89.20
50570;DHT22;36525;49.398;7.614;2023-07-02T14:36:16;25.90;87.10
50570;DHT22;36525;49.398;7.614;2023-07-02T14:38:43;25.00;86.90
50570;DHT22;36525;49.398;7.614;2023-07-02T14:41:10;24.60;87.70
50570;DHT22;36525;49.398;7.614;2023-07-02T14:43:37;24.40;88.30
50570;DHT22;36525;49.398;7.614;2023-07-02T14:46:05;24.60;87.90
50570;DHT22;36525;49.398;7.614;2023-07-02T14:48:32;24.60;86.70
50570;DHT22;36525;49.398;7.614;2023-07-02T14:51:01;24.50;87.60
50570;DHT22;36525;49.398;7.614;2023-07-02T14:53:31;24.20;87.60
50570;DHT22;36525;49.398;7.614;2023-07-02T14:56:00;23.60;88.60
50570;DHT22;36525;49.398;7.614;2023-07-02T14:58:29;23.10;88.90
50570;DHT22;36525;49.398;7.614;2023-07-02T15:00:57;23.30;90.20
50570;DHT22;36525;49.398;7.614;2023-07-02T15:03:26;23.10;90.10
50570;DHT22;36525;49.398;7.614;2023-07-02T15:06:04;24.00;88.80
50570;DHT22;36525;49.398;7.614;2023-07-02T15:08:32;24.00;87.80
50570;DHT22;36525;49.398;7.614;2023-07-02T15:11:00;23.60;89.00
50570;DHT22;36525;49.398;7.614;2023-07-02T15:13:28;23.10;90.10
50570;DHT22;36525;49.398;7.614;2023-07-02T15:15:55;23.40;89.80
50570;DHT22;36525;49.398;7.614;2023-07-02T15:18:23;23.50;88.20
50570;DHT22;36525;49.398;7.614;2023-07-02T15:23:21;24.80;86.40
50570;DHT22;36525;49.398;7.614;2023-07-02T15:25:59;24.30;86.20
50570;DHT22;36525;49.398;7.614;2023-07-02T15:28:28;23.80;87.60
50570;DHT22;36525;49.398;7.614;2023-07-02T15:31:03;23.70;88.10
50570;DHT22;36525;49.398;7.614;2023-07-02T15:33:32;23.90;87.70
50570;DHT22;36525;49.398;7.614;2023-07-02T15:36:03;24.70;87.20
50570;DHT22;36525;49.398;7.614;2023-07-02T15:38:34;24.20;86.90
50570;DHT22;36525;49.398;7.614;2023-07-02T15:41:17;23.70;87.10
50570;DHT22;36525;49.398;7.614;2023-07-02T15:43:46;23.80;88.00
50570;DHT22;36525;49.398;7.614;2023-07-02T15:46:16;23.50;87.90
50570;DHT22;36525;49.398;7.614;2023-07-02T15:48:43;23.10;88.30